createdAt,value
2018-03-07T00:02:15.902Z,55.80
2018-03-07T00:04:43.597Z,57.57
2018-03-07T00:07:11.165Z,56.27
2018-03-07T00:09:38.769Z,56.83
2018-03-07T00:12:06.351Z,57.77
2018-03-07T00:14:33.967Z,57.60
2018-03-07T00:17:01.564Z,57.97
2018-03-07T00:19:29.173Z,55.10
2018-03-07T00:21:56.742Z,55.53
2018-03-07T00:24:24.359Z,57.33
2018-03-07T00:26:51.928Z,55.00
2018-03-07T00:29:19.529Z,56.17
2018-03-07T00:31:47.103Z,57.73
2018-03-07T00:34:14.737Z,61.10
2018-03-07T00:36:42.331Z,57.90
2018-03-07T00:39:09.903Z,57.67
2018-03-07T00:41:37.510Z,59.00
2018-03-07T00:44:05.846Z,59.13
2018-03-07T00:46:33.459Z,56.50
2018-03-07T00:49:01.067Z,63.80
2018-03-07T00:51:28.639Z,60.53
2018-03-07T00:53:56.241Z,59.33
2018-03-07T00:56:24.569Z,59.33
2018-03-07T00:58:52.184Z,57.30
2018-03-07T01:01:19.753Z,57.17
2018-03-07T01:03:47.356Z,58.80
2018-03-07T01:06:14.935Z,61.73
2018-03-07T01:08:42.545Z,60.27
2018-03-07T01:11:10.121Z,58.93
2018-03-07T01:13:37.720Z,59.63
2018-03-07T01:16:05.326Z,61.53
2018-03-07T01:18:32.901Z,66.07
2018-03-07T01:21:00.517Z,66.57
2018-03-07T01:23:28.856Z,61.43
2018-03-07T01:25:56.422Z,59.43
2018-03-07T01:28:24.030Z,59.40
2018-03-07T01:30:52.405Z,58.77
2018-03-07T01:33:20.776Z,59.80
2018-03-07T01:35:48.379Z,60.43
2018-03-07T01:38:15.986Z,60.60
2018-03-07T01:40:43.562Z,60.20
2018-03-07T01:43:11.966Z,61.00
2018-03-07T01:45:39.672Z,63.10
2018-03-07T01:48:07.276Z,60.67
2018-03-07T01:50:34.847Z,66.60
2018-03-07T01:53:02.505Z,63.37
2018-03-07T01:55:30.085Z,67.70
2018-03-07T01:57:57.739Z,66.80
2018-03-07T02:00:25.343Z,65.40
2018-03-07T02:02:52.937Z,65.33
2018-03-07T02:05:20.541Z,63.80
2018-03-07T02:07:48.121Z,65.33
2018-03-07T02:12:48.589Z,61.97
2018-03-07T02:15:16.294Z,63.50
2018-03-07T02:17:43.858Z,66.83
2018-03-07T02:20:11.422Z,60.53
2018-03-07T02:22:39.034Z,63.43
2018-03-07T02:25:06.598Z,61.20
2018-03-07T02:27:34.228Z,60.30
2018-03-07T02:30:01.795Z,60.07
2018-03-07T02:32:30.138Z,64.40
2018-03-07T02:34:57.731Z,61.40
2018-03-07T02:37:25.356Z,61.43
2018-03-07T02:39:52.938Z,63.27
2018-03-07T02:42:20.550Z,59.50
2018-03-07T02:44:48.173Z,61.33
2018-03-07T02:47:15.765Z,58.23
2018-03-07T02:49:43.412Z,63.17
2018-03-07T02:52:10.981Z,61.07
2018-03-07T02:54:38.604Z,60.47
2018-03-07T02:57:06.174Z,63.50
2018-03-07T02:59:33.754Z,64.50
2018-03-07T03:02:01.372Z,62.90
2018-03-07T03:04:28.952Z,65.43
2018-03-07T03:06:56.563Z,62.57
2018-03-07T03:09:24.898Z,61.33
2018-03-07T03:11:52.610Z,63.97
2018-03-07T03:14:20.203Z,65.33
2018-03-07T03:16:47.771Z,61.20
2018-03-07T03:19:15.387Z,64.37
2018-03-07T03:21:43.733Z,63.53
2018-03-07T03:24:11.332Z,61.60
2018-03-07T03:26:38.902Z,58.37
2018-03-07T03:29:07.277Z,60.67
2018-03-07T03:31:35.629Z,57.70
2018-03-07T03:34:03.248Z,60.47
2018-03-07T03:36:30.854Z,59.10
2018-03-07T03:38:58.428Z,60.30
2018-03-07T03:41:26.799Z,58.00
2018-03-07T03:43:54.374Z,58.00
2018-03-07T03:46:22.014Z,58.80
2018-03-07T03:48:49.591Z,57.37
2018-03-07T03:51:17.204Z,57.60
2018-03-07T03:53:44.769Z,58.43
2018-03-07T03:56:12.374Z,58.70
2018-03-07T03:58:39.995Z,58.03
2018-03-07T04:01:07.563Z,59.47
2018-03-07T04:03:35.191Z,57.73
2018-03-07T04:06:02.762Z,60.00
2018-03-07T04:08:30.378Z,55.53
2018-03-07T04:13:31.550Z,61.10
2018-03-07T04:15:59.884Z,55.40
2018-03-07T04:18:27.450Z,55.27
2018-03-07T04:20:55.065Z,60.40
2018-03-07T04:23:22.671Z,59.87
2018-03-07T04:25:50.295Z,63.37
2018-03-07T04:28:17.868Z,62.60
2018-03-07T04:30:45.479Z,59.33
2018-03-07T04:33:13.053Z,64.53
2018-03-07T04:35:41.436Z,59.37
2018-03-07T04:38:09.043Z,59.13
2018-03-07T04:40:36.626Z,63.20
2018-03-07T04:43:04.242Z,61.60
2018-03-07T04:45:31.813Z,57.80
2018-03-07T04:47:59.381Z,57.87
2018-03-07T04:50:26.990Z,60.37
2018-03-07T04:52:54.675Z,58.17
2018-03-07T04:55:23.013Z,60.73
2018-03-07T04:57:50.637Z,67.90
2018-03-07T05:00:18.220Z,65.17
2018-03-07T05:02:45.812Z,64.87
2018-03-07T05:05:14.202Z,63.57
2018-03-07T05:07:42.551Z,59.43
2018-03-07T05:10:10.167Z,57.93
2018-03-07T05:12:37.755Z,60.13
2018-03-07T05:15:05.377Z,58.70
2018-03-07T05:17:32.951Z,56.37
2018-03-07T05:20:00.522Z,58.30
2018-03-07T05:22:28.141Z,60.13
2018-03-07T05:24:55.711Z,61.27
2018-03-07T05:27:24.051Z,58.90
2018-03-07T05:29:51.650Z,59.33
2018-03-07T05:32:19.236Z,62.17
2018-03-07T05:34:46.859Z,62.43
2018-03-07T05:37:14.479Z,62.70
2018-03-07T05:39:42.050Z,60.97
2018-03-07T05:42:09.618Z,63.73
2018-03-07T05:44:37.235Z,59.67
2018-03-07T05:47:04.812Z,58.70
2018-03-07T05:49:32.419Z,58.67
2018-03-07T05:51:59.990Z,59.60
2018-03-07T05:54:27.602Z,60.37
2018-03-07T05:56:55.219Z,65.07
2018-03-07T05:59:22.790Z,63.13
2018-03-07T06:01:50.356Z,62.90
2018-03-07T06:04:18.718Z,60.17
2018-03-07T06:06:46.326Z,65.47
2018-03-07T06:09:13.950Z,61.83
2018-03-07T06:11:42.292Z,63.63
2018-03-07T06:14:09.859Z,65.07
2018-03-07T06:16:37.466Z,69.73
2018-03-07T06:19:05.035Z,68.37
2018-03-07T06:21:32.651Z,66.77
2018-03-07T06:24:00.228Z,63.63
2018-03-07T06:26:28.567Z,65.67
2018-03-07T06:28:56.217Z,71.47
2018-03-07T06:31:23.823Z,63.70
2018-03-07T06:33:51.392Z,68.03
2018-03-07T06:36:18.992Z,71.50
2018-03-07T06:38:46.577Z,67.40
2018-03-07T06:41:14.188Z,66.90
2018-03-07T06:43:42.567Z,64.97
2018-03-07T06:46:10.898Z,67.53
2018-03-07T06:48:38.506Z,66.83
2018-03-07T06:51:06.896Z,65.70
2018-03-07T06:53:34.469Z,60.20
2018-03-07T06:56:02.045Z,59.27
2018-03-07T06:58:29.651Z,67.23
2018-03-07T07:00:57.227Z,64.57
2018-03-07T07:03:24.834Z,65.37
2018-03-07T07:05:52.449Z,62.47
2018-03-07T07:08:20.046Z,63.33
2018-03-07T07:10:47.614Z,63.23
2018-03-07T07:13:15.227Z,62.20
2018-03-07T07:15:43.613Z,69.97
2018-03-07T07:18:11.955Z,65.47
2018-03-07T07:20:39.575Z,68.97
2018-03-07T07:23:07.228Z,63.37
2018-03-07T07:25:34.835Z,62.80
2018-03-07T07:28:02.442Z,62.97
2018-03-07T07:30:30.822Z,61.73
2018-03-07T07:32:59.162Z,60.57
2018-03-07T07:35:26.774Z,58.17
2018-03-07T07:37:54.342Z,63.80
2018-03-07T07:40:21.959Z,60.30
2018-03-07T07:42:49.596Z,61.23
2018-03-07T07:45:17.157Z,70.37
2018-03-07T07:47:44.782Z,65.00
2018-03-07T07:50:12.549Z,68.03
2018-03-07T07:52:40.205Z,67.07
2018-03-07T07:55:07.774Z,62.83
2018-03-07T07:57:35.378Z,69.83
2018-03-07T08:00:03.004Z,68.80
2018-03-07T08:02:30.617Z,66.57
2018-03-07T08:04:58.229Z,68.57
2018-03-07T08:07:25.834Z,64.60
2018-03-07T08:09:53.448Z,69.47
2018-03-07T08:12:21.017Z,69.13
2018-03-07T08:14:48.630Z,67.83
2018-03-07T08:17:16.206Z,66.50
2018-03-07T08:19:44.583Z,66.00
2018-03-07T08:22:12.926Z,65.53
2018-03-07T08:24:40.535Z,67.13
2018-03-07T08:27:08.111Z,65.83
2018-03-07T08:29:35.714Z,65.40
2018-03-07T08:32:03.326Z,73.43
2018-03-07T08:34:30.891Z,68.00
2018-03-07T08:36:58.498Z,65.73
2018-03-07T08:39:26.110Z,66.70
2018-03-07T08:41:53.681Z,69.53
2018-03-07T08:44:21.300Z,64.03
2018-03-07T08:46:48.866Z,66.00
2018-03-07T08:49:17.254Z,61.60
2018-03-07T08:51:44.864Z,63.23
2018-03-07T08:54:12.453Z,66.07
2018-03-07T08:56:40.061Z,63.50
2018-03-07T08:59:07.636Z,62.27
2018-03-07T09:01:35.272Z,66.07
2018-03-07T09:04:02.843Z,69.00
2018-03-07T09:06:30.416Z,68.47
2018-03-07T09:08:58.028Z,64.47
2018-03-07T09:11:25.599Z,67.27
2018-03-07T09:13:53.214Z,65.30
2018-03-07T09:16:20.791Z,66.93
2018-03-07T09:18:48.401Z,72.70
2018-03-07T09:21:16.017Z,70.13
2018-03-07T09:23:43.612Z,68.60
2018-03-07T09:26:11.982Z,71.63
2018-03-07T09:28:39.550Z,72.57
2018-03-07T09:31:07.971Z,70.50
2018-03-07T09:33:35.542Z,67.33
2018-03-07T09:36:03.183Z,69.33
2018-03-07T09:38:30.757Z,70.97
2018-03-07T09:40:58.329Z,67.10
2018-03-07T09:43:25.933Z,68.97
2018-03-07T09:45:53.505Z,66.67
2018-03-07T09:48:21.119Z,70.83
2018-03-07T09:50:48.696Z,66.37
2018-03-07T09:53:16.301Z,68.57
2018-03-07T09:55:43.878Z,70.97
2018-03-07T09:58:11.594Z,64.13
2018-03-07T10:00:39.166Z,67.03
2018-03-07T10:03:07.502Z,71.97
2018-03-07T10:05:35.115Z,69.10
2018-03-07T10:08:02.692Z,72.60
2018-03-07T10:10:30.299Z,69.40
2018-03-07T10:12:57.876Z,65.90
2018-03-07T10:15:26.254Z,68.33
2018-03-07T10:17:53.858Z,70.80
2018-03-07T10:20:21.423Z,70.70
2018-03-07T10:22:49.035Z,72.27
2018-03-07T10:25:17.399Z,66.60
2018-03-07T10:27:44.978Z,70.23
2018-03-07T10:30:13.346Z,64.73
2018-03-07T10:32:40.958Z,63.73
2018-03-07T10:35:08.540Z,63.53
2018-03-07T10:37:36.137Z,68.73
2018-03-07T10:40:03.788Z,69.03
2018-03-07T10:42:31.353Z,68.27
2018-03-07T10:44:58.966Z,68.40
2018-03-07T10:47:26.559Z,70.63
2018-03-07T10:49:54.175Z,65.13
2018-03-07T10:52:21.757Z,70.37
2018-03-07T10:54:49.332Z,72.07
2018-03-07T10:57:16.948Z,71.20
2018-03-07T10:59:45.287Z,71.93
2018-03-07T11:02:12.911Z,72.30
2018-03-07T11:04:40.473Z,67.70
2018-03-07T11:07:08.045Z,68.30
2018-03-07T11:09:35.809Z,70.10
2018-03-07T11:12:03.370Z,75.30
2018-03-07T11:14:30.942Z,72.90
2018-03-07T11:16:58.566Z,72.30
2018-03-07T11:19:26.134Z,72.97
2018-03-07T11:21:53.954Z,70.57
2018-03-07T11:24:21.530Z,68.70
2018-03-07T11:26:49.102Z,66.13
2018-03-07T11:29:17.475Z,67.03
2018-03-07T11:31:45.824Z,69.47
2018-03-07T11:34:13.470Z,65.57
2018-03-07T11:36:41.036Z,65.87
2018-03-07T11:39:08.623Z,65.37
2018-03-07T11:41:36.229Z,63.87
2018-03-07T11:44:03.803Z,67.10
2018-03-07T11:46:31.408Z,71.37
2018-03-07T11:48:58.983Z,65.17
2018-03-07T11:51:27.386Z,65.90
2018-03-07T11:53:54.945Z,66.23
2018-03-07T11:56:22.520Z,65.90
2018-03-07T11:58:50.137Z,66.83
2018-03-07T12:01:18.521Z,72.87
2018-03-07T12:03:46.850Z,73.97
2018-03-07T12:06:14.450Z,69.77
2018-03-07T12:08:42.071Z,70.80
2018-03-07T12:11:09.682Z,69.40
2018-03-07T12:13:38.018Z,64.60
2018-03-07T12:16:05.611Z,63.80
2018-03-07T12:18:33.268Z,70.10
2018-03-07T12:21:00.847Z,66.60
2018-03-07T12:23:28.468Z,67.13
2018-03-07T12:25:56.038Z,68.87
2018-03-07T12:28:23.646Z,67.03
2018-03-07T12:30:51.214Z,71.37
2018-03-07T12:33:18.814Z,67.70
2018-03-07T12:35:46.430Z,75.83
2018-03-07T12:38:13.995Z,75.57
2018-03-07T12:40:41.569Z,73.57
2018-03-07T12:43:09.182Z,69.90
2018-03-07T12:45:36.758Z,76.83
2018-03-07T12:48:05.146Z,73.93
2018-03-07T12:50:33.478Z,72.00
2018-03-07T12:53:01.082Z,77.37
2018-03-07T12:55:28.658Z,73.90
2018-03-07T12:57:56.283Z,70.50
2018-03-07T13:00:23.873Z,69.57
2018-03-07T13:02:51.443Z,71.60
2018-03-07T13:05:19.048Z,68.60
2018-03-07T13:07:46.619Z,69.97
2018-03-07T13:10:14.244Z,71.33
2018-03-07T13:12:41.853Z,65.57
2018-03-07T13:15:09.436Z,69.60
2018-03-07T13:17:37.040Z,66.70
2018-03-07T13:20:04.654Z,67.97
2018-03-07T13:22:33.010Z,64.97
2018-03-07T13:25:00.602Z,61.83
2018-03-07T13:27:28.205Z,63.63
2018-03-07T13:29:55.779Z,65.63
2018-03-07T13:32:23.395Z,62.63
2018-03-07T13:34:50.972Z,62.57
2018-03-07T13:37:18.611Z,62.57
2018-03-07T13:39:46.562Z,63.70
2018-03-07T13:42:14.147Z,60.73
2018-03-07T13:44:41.818Z,62.93
2018-03-07T13:47:09.359Z,63.90
2018-03-07T13:49:37.704Z,65.50
2018-03-07T13:52:05.320Z,63.67
2018-03-07T13:54:32.936Z,60.87
2018-03-07T13:57:00.502Z,60.50
2018-03-07T13:59:28.131Z,59.53
2018-03-07T14:01:55.707Z,61.50
2018-03-07T14:04:23.281Z,60.83
2018-03-07T14:06:51.694Z,58.77
2018-03-07T14:09:19.322Z,59.93
2018-03-07T14:11:46.898Z,61.70
2018-03-07T14:14:15.271Z,59.93
2018-03-07T14:16:42.851Z,60.87
2018-03-07T14:19:11.258Z,62.37
2018-03-07T14:21:38.863Z,60.60
2018-03-07T14:24:06.491Z,59.67
2018-03-07T14:26:34.074Z,60.57
2018-03-07T14:29:01.711Z,61.60
2018-03-07T14:31:29.314Z,61.07
2018-03-07T14:33:56.934Z,60.57
2018-03-07T14:36:24.555Z,57.50
2018-03-07T14:38:52.890Z,60.03
2018-03-07T14:41:21.260Z,61.07
2018-03-07T14:43:48.844Z,59.93
2018-03-07T14:46:16.460Z,59.10
2018-03-07T14:48:44.061Z,61.20
2018-03-07T14:51:11.631Z,60.17
2018-03-07T14:53:39.249Z,61.03
2018-03-07T14:56:06.850Z,62.50
2018-03-07T14:58:34.420Z,58.97
2018-03-07T15:01:02.048Z,59.30
2018-03-07T15:03:29.818Z,56.77
2018-03-07T15:05:57.518Z,55.93
2018-03-07T15:08:25.916Z,56.03
2018-03-07T15:10:53.554Z,59.00
2018-03-07T15:13:21.118Z,56.87
2018-03-07T15:15:49.508Z,56.60
2018-03-07T15:18:17.887Z,56.17
2018-03-07T15:20:46.262Z,56.03
2018-03-07T15:23:14.600Z,54.47
2018-03-07T15:25:42.239Z,57.10
2018-03-07T15:28:09.807Z,53.67
2018-03-07T15:30:37.423Z,56.27
2018-03-07T15:33:05.812Z,56.13
2018-03-07T15:35:33.388Z,53.37
2018-03-07T15:38:01.003Z,54.77
2018-03-07T15:40:28.622Z,52.60
2018-03-07T15:42:56.206Z,50.63
2018-03-07T15:45:23.824Z,53.30
2018-03-07T15:47:52.154Z,52.97
2018-03-07T15:50:19.771Z,54.80
2018-03-07T15:52:47.342Z,53.20
2018-03-07T15:55:14.957Z,50.07
2018-03-07T15:57:42.540Z,51.43
2018-03-07T16:00:10.147Z,48.70
2018-03-07T16:02:37.715Z,50.07
2018-03-07T16:05:05.326Z,49.93
2018-03-07T16:07:33.661Z,48.20
2018-03-07T16:10:01.262Z,50.03
2018-03-07T16:12:29.642Z,47.80
2018-03-07T16:14:58.056Z,48.33
2018-03-07T16:17:25.682Z,51.33
2018-03-07T16:19:53.256Z,52.20
2018-03-07T16:22:21.642Z,50.10
2018-03-07T16:24:49.211Z,48.63
2018-03-07T16:27:16.773Z,49.40
2018-03-07T16:29:44.386Z,50.17
2018-03-07T16:32:11.954Z,46.93
2018-03-07T16:34:40.692Z,51.33
2018-03-07T16:37:08.324Z,50.90
2018-03-07T16:39:35.924Z,52.17
2018-03-07T16:42:03.500Z,52.97
2018-03-07T16:44:31.105Z,53.23
2018-03-07T16:46:59.439Z,52.20
2018-03-07T16:49:27.074Z,55.70
2018-03-07T16:51:54.651Z,56.77
2018-03-07T16:54:22.400Z,55.37
2018-03-07T16:56:50.014Z,55.20
2018-03-07T16:59:17.582Z,57.00
2018-03-07T17:01:45.199Z,58.40
2018-03-07T17:04:12.771Z,56.53
2018-03-07T17:06:40.388Z,58.00
2018-03-07T17:09:07.965Z,58.03
2018-03-07T17:11:35.581Z,59.83
2018-03-07T17:14:03.216Z,60.00
2018-03-07T17:16:30.796Z,62.43
2018-03-07T17:18:58.372Z,62.90
2018-03-07T17:21:26.751Z,60.90
2018-03-07T17:23:55.127Z,63.30
2018-03-07T17:26:22.704Z,61.83
2018-03-07T17:31:23.120Z,64.63
2018-03-07T17:33:50.738Z,60.90
2018-03-07T17:36:18.308Z,58.40
2018-03-07T17:38:45.914Z,60.77
2018-03-07T17:41:13.536Z,60.63
2018-03-07T17:43:41.111Z,58.37
2018-03-07T17:46:08.728Z,61.87
2018-03-07T17:48:36.298Z,63.13
2018-03-07T17:51:03.909Z,61.70
2018-03-07T17:53:31.490Z,61.87
2018-03-07T17:55:59.122Z,63.13
2018-03-07T17:58:26.759Z,63.87
2018-03-07T18:00:54.367Z,63.47
2018-03-07T18:03:21.987Z,63.73
2018-03-07T18:05:49.565Z,65.47
2018-03-07T18:08:17.145Z,63.90
2018-03-07T18:10:44.773Z,64.33
2018-03-07T18:13:12.352Z,68.20
2018-03-07T18:15:39.925Z,69.27
2018-03-07T18:18:07.562Z,67.43
2018-03-07T18:20:35.142Z,64.27
2018-03-07T18:23:02.770Z,65.50
2018-03-07T18:25:30.382Z,65.50
2018-03-07T18:27:58.028Z,62.30
2018-03-07T18:30:25.629Z,66.60
2018-03-07T18:32:53.284Z,69.53
2018-03-07T18:35:20.910Z,71.30
2018-03-07T18:37:48.592Z,75.43
2018-03-07T18:40:16.300Z,71.57
2018-03-07T18:42:44.115Z,71.17
2018-03-07T18:45:11.722Z,71.47
2018-03-07T18:47:39.345Z,69.33
2018-03-07T18:50:07.052Z,65.53
2018-03-07T18:52:34.697Z,72.57
2018-03-07T18:55:02.344Z,73.20
2018-03-07T18:57:29.933Z,73.57
2018-03-07T18:59:57.595Z,70.63
2018-03-07T19:02:25.181Z,70.33
2018-03-07T19:04:53.671Z,77.20
2018-03-07T19:07:21.251Z,78.03
2018-03-07T19:09:48.936Z,77.97
2018-03-07T19:12:16.630Z,78.23
2018-03-07T19:14:44.272Z,73.63
2018-03-07T19:17:11.842Z,72.23
2018-03-07T19:19:39.463Z,71.73
2018-03-07T19:22:07.061Z,72.43
2018-03-07T19:24:34.647Z,72.63
2018-03-07T19:27:02.266Z,72.63
2018-03-07T19:29:29.835Z,70.33
2018-03-07T19:31:58.179Z,72.90
2018-03-07T19:34:26.400Z,73.67
2018-03-07T19:36:54.006Z,74.63
2018-03-07T19:39:21.591Z,76.50
2018-03-07T19:41:49.212Z,74.27
2018-03-07T19:44:16.858Z,73.60
2018-03-07T19:46:44.428Z,71.83
2018-03-07T19:49:12.064Z,74.13
2018-03-07T19:51:39.636Z,75.53
2018-03-07T19:54:07.247Z,72.73
2018-03-07T19:56:34.852Z,72.50
2018-03-07T19:59:02.435Z,72.37
2018-03-07T20:01:30.046Z,73.53
2018-03-07T20:03:57.619Z,74.40
2018-03-07T20:06:25.230Z,69.93
2018-03-07T20:08:52.847Z,71.97
2018-03-07T20:11:20.422Z,71.70
2018-03-07T20:13:47.995Z,70.03
2018-03-07T20:16:15.609Z,75.60
2018-03-07T20:18:43.179Z,76.30
2018-03-07T20:21:10.793Z,74.17
2018-03-07T20:23:38.402Z,82.30
2018-03-07T20:26:06.044Z,81.03
2018-03-07T20:28:33.640Z,78.27
2018-03-07T20:31:02.100Z,75.33
2018-03-07T20:33:29.944Z,77.07
2018-03-07T20:35:57.512Z,82.20
2018-03-07T20:38:25.127Z,83.90
2018-03-07T20:40:52.749Z,82.97
2018-03-07T20:43:20.368Z,79.17
2018-03-07T20:45:48.268Z,77.87
2018-03-07T20:48:15.866Z,78.07
2018-03-07T20:50:43.492Z,80.63
2018-03-07T20:53:11.107Z,82.80
2018-03-07T20:55:38.679Z,78.03
2018-03-07T20:58:06.374Z,74.73
2018-03-07T21:00:33.991Z,76.33
2018-03-07T21:03:01.558Z,77.37
2018-03-07T21:05:29.163Z,80.67
2018-03-07T21:07:56.871Z,83.77
2018-03-07T21:10:24.495Z,85.27
2018-03-07T21:12:52.071Z,82.23
2018-03-07T21:15:20.525Z,80.67
2018-03-07T21:17:48.143Z,77.33
2018-03-07T21:20:15.716Z,78.97
2018-03-07T21:22:44.988Z,80.27
2018-03-07T21:25:12.656Z,79.57
2018-03-07T21:27:40.273Z,82.00
2018-03-07T21:30:07.888Z,82.20
2018-03-07T21:32:35.598Z,77.17
2018-03-07T21:35:03.198Z,79.63
2018-03-07T21:37:33.801Z,81.83
2018-03-07T21:40:01.728Z,80.17
2018-03-07T21:42:29.335Z,80.43
2018-03-07T21:44:56.968Z,76.90
2018-03-07T21:47:24.748Z,80.60
2018-03-07T21:49:52.356Z,81.53
2018-03-07T21:52:21.701Z,78.17
2018-03-07T21:54:49.597Z,82.03
2018-03-07T21:57:18.148Z,79.10
2018-03-07T21:59:45.743Z,79.93
2018-03-07T22:02:14.124Z,76.97
2018-03-07T22:04:42.585Z,80.17
2018-03-07T22:07:10.220Z,82.03
2018-03-07T22:09:37.803Z,83.10
2018-03-07T22:12:05.605Z,78.83
2018-03-07T22:14:33.335Z,83.77
2018-03-07T22:17:01.195Z,84.53
2018-03-07T22:19:28.894Z,80.07
2018-03-07T22:21:56.532Z,80.40
2018-03-07T22:24:24.161Z,81.07
2018-03-07T22:26:51.753Z,83.30
2018-03-07T22:29:19.362Z,80.23
2018-03-07T22:31:46.946Z,77.53
2018-03-07T22:34:14.562Z,80.30
2018-03-07T22:36:42.176Z,83.13
2018-03-07T22:39:11.530Z,77.23
2018-03-07T22:41:40.270Z,79.83
2018-03-07T22:44:09.099Z,80.33
2018-03-07T22:46:36.671Z,80.67
2018-03-07T22:49:05.820Z,80.80
2018-03-07T22:51:33.653Z,79.00
2018-03-07T22:54:01.258Z,77.73
2018-03-07T22:56:28.880Z,76.80
2018-03-07T22:58:56.554Z,82.80
2018-03-07T23:01:24.456Z,77.20
2018-03-07T23:03:52.825Z,76.70
2018-03-07T23:06:20.430Z,80.00
2018-03-07T23:08:48.079Z,79.00
2018-03-07T23:11:15.647Z,81.53
2018-03-07T23:13:43.308Z,80.17
2018-03-07T23:16:11.682Z,76.87
2018-03-07T23:18:40.035Z,79.30
2018-03-07T23:21:07.652Z,79.50
2018-03-07T23:23:35.232Z,77.80
2018-03-07T23:26:02.808Z,77.37
2018-03-07T23:28:30.423Z,76.10
2018-03-07T23:30:58.761Z,81.33
2018-03-07T23:33:26.381Z,81.60
2018-03-07T23:35:53.999Z,77.63
2018-03-07T23:38:21.590Z,82.67
2018-03-07T23:40:49.220Z,74.00
2018-03-07T23:43:16.847Z,76.30
2018-03-07T23:45:44.458Z,80.47
2018-03-07T23:48:12.098Z,79.73
2018-03-07T23:50:39.715Z,80.50
2018-03-07T23:53:07.364Z,77.40
2018-03-07T23:55:34.939Z,77.17
2018-03-07T23:58:02.538Z,82.87
